Weather observations for the past three days for
Palestine, Palestine Municipal Airport
Imperial (Metric)
Date Time (cdt) Wind (mph) Vis. (mi.) Weather Sky Cond. Temperature (ºF) Relative Humidity Wind Chill (°F) Heat Index (°F) Pressure Precipitation (in)
Air Dwpt 6 hour altimeter (in) sea level (mb) 1 hr 3 hr 6 hr
Max. Min.
07 03:55 Vrbl 6 10.00 Overcast FEW013 SCT018 OVC029 55.4 51.8 88% 29.99 0.0
07 03:35 E 8 10.00 Overcast OVC012 55.4 51.8 88% 29.98 0.0
07 03:15 NE 8 10.00 Overcast OVC012 55.4 51.8 88% 29.99 0.0
07 02:55 NE 8 G 14 10.00 Overcast OVC012 55.4 51.8 88% 29.99 0.0
07 02:15 NE 12 10.00 Overcast OVC014 55.4 51.8 88% 29.99 0.0
07 01:55 NE 10 10.00 Overcast OVC015 55.4 51.8 88% 30.01 0.0
07 01:35 NE 10 10.00 Overcast BKN014 BKN027 OVC036 55.4 51.8 88% 30.02 0.0
07 01:15 NE 9 G 15 10.00 Overcast SCT011 BKN026 OVC036 57.2 53.6 88% 30.01 0.0
07 00:55 NE 10 G 17 10.00 Overcast OVC010 57.2 53.6 88% 30.02 0.0
07 00:35 NE 8 10.00 Overcast OVC009 57.2 55.4 94% 30.02 0.0
07 00:15 N 12 G 21 10.00 Overcast OVC008 59 55.4 88% 30.01 0.0
06 23:55 NE 12 10.00 Overcast OVC010 59 57.2 94% 30 0.0
06 23:35 N 10 G 16 10.00 Overcast OVC010 59 57.2 94% 30 0.0
06 23:15 N 9 G 20 10.00 Overcast OVC009 60.8 57.2 88% 30.01 0.0
06 22:55 N 8 10.00 Overcast OVC009 60.8 59 94% 30 0.0
06 22:35 N 13 10.00 Overcast OVC009 60.8 59 94% 29.99 0.0
06 22:15 N 12 9.00 Overcast OVC008 60.8 59 94% 29.98 0.0
06 21:55 N 13 9.00 Overcast OVC007 60.8 59 94% 29.98 0.0
06 21:35 N 9 G 16 9.00 Overcast OVC008 60.8 59 94% 29.96 0.0
06 21:15 N 6 G 13 8.00 Overcast OVC008 60.8 59 94% 29.96 0.0
06 20:55 N 9 7.00 Overcast OVC008 60.8 59 94% 29.95 0.0
06 20:35 N 12 7.00 Overcast OVC009 60.8 59 94% 29.93 0.0
06 20:15 N 12 G 17 7.00 Overcast OVC009 60.8 59 94% 29.91 0.0
06 19:55 N 12 G 20 6.00 Fog/Mist OVC010 60.8 59 94% 29.92 0.0
06 19:35 N 12 G 20 7.00 Overcast OVC011 60.8 59 94% 29.91 0.0
06 19:15 N 13 G 20 8.00 Overcast OVC012 60.8 59 94% 29.91 0.0
06 18:55 N 12 8.00 Overcast OVC013 62.6 59 88% 29.9 0.0
06 18:35 N 6 G 15 8.00 Overcast OVC013 62.6 59 88% 29.91 0.0
06 18:15 N 10 G 17 8.00 Overcast OVC013 62.6 59 88% 29.9 0.0
06 17:55 N 10 8.00 Overcast OVC012 62.6 59 88% 29.89 0.0
06 17:35 N 12 8.00 Overcast OVC012 62.6 59 88% 29.89 0.0
06 17:15 N 9 G 17 8.00 Overcast OVC013 62.6 59 88% 29.89 0.0
06 16:55 N 12 8.00 Overcast OVC013 64.4 59 83% 29.88 0.0
06 16:35 N 14 7.00 Overcast OVC014 62.6 59 88% 29.89 0.0
06 16:15 N 10 8.00 Overcast OVC015 64.4 59 83% 29.89 0.0
06 15:55 NW 12 7.00 Overcast OVC017 64.4 59 83% 29.89 0.0
06 15:35 N 13 7.00 Overcast OVC017 68 59 73% 29.88 0.0
06 15:15 NW 13 7.00 Overcast OVC018 68 59 73% 29.88 0.0
06 14:55 NW 9 G 20 8.00 Overcast OVC018 68 59 73% 29.88 0.0
06 14:35 N 13 G 20 8.00 Overcast OVC018 69.8 60.8 73% 29.87 0.0
06 14:15 NW 10 8.00 Overcast OVC017 69.8 60.8 73% 29.88 0.0
06 13:55 NW 8 8.00 Overcast OVC015 69.8 62.6 78% 29.87 0.0
06 13:35 Calm 8.00 Partly Cloudy SCT014 69.8 60.8 73% 29.86 0.0
06 13:15 E 7 G 13 7.00 Fair CLR 68 59 73% 29.85 0.0
06 12:55 E 10 G 18 7.00 Fair CLR 64.4 57.2 78% 29.83 0.0
06 12:35 E 7 7.00 Partly Cloudy SCT010 60.8 57.2 88% 29.9 0.0
06 12:15 N 5 G 14 7.00 Overcast OVC009 59 55.4 88% 29.94 0.0
06 11:55 N 14 G 23 6.00 Fog/Mist OVC009 59 55.4 88% 29.95 0.0
06 11:35 N 15 6.00 Fog/Mist OVC009 59 55.4 88% 29.96 0.0
06 11:15 NW 10 G 17 6.00 Fog/Mist OVC009 59 57.2 94% 29.96 0.0
06 10:55 NW 14 6.00 Fog/Mist OVC009 59 57.2 94% 29.93 0.0
06 10:35 NW 13 6.00 Fog/Mist OVC009 60.8 57.2 88% 29.91 0.0
06 10:15 NW 10 G 16 6.00 Fog/Mist OVC009 62.6 59 88% 29.9 0.0
06 09:55 N 13 6.00 Fog/Mist OVC009 62.6 59 88% 29.89 0.0
06 09:35 N 13 6.00 Fog/Mist BKN008 BKN013 64.4 60.8 88% 29.88 0.0
06 09:15 N 13 7.00 Overcast BKN009 OVC013 64.4 62.6 94% 29.87 0.0
06 08:55 N 12 7.00 Overcast OVC009 64.4 62.6 94% 29.86 0.0
06 08:35 NW 10 8.00 Overcast OVC007 68 64.4 88% 29.85 0.0
06 08:15 NW 8 4.00 Fog/Mist SCT006 BKN015 OVC034 73.4 73.4 100% 29.84 0.0
06 07:55 S 5 4.00 Fog/Mist SCT015 BKN022 OVC055 73.4 73.4 100% 29.83 0.0
06 07:35 Calm 4.00 Fog/Mist FEW011 BKN029 OVC055 73.4 73.4 100% 29.83 0.0
06 07:15 Calm 4.00 Fog/Mist BKN012 BKN018 OVC050 73.4 71.6 94% 29.83 0.0
06 06:55 Calm 4.00 Fog/Mist OVC013 73.4 71.6 94% 29.82 0.0
06 06:35 Calm 4.00 Fog/Mist FEW010 BKN015 OVC055 73.4 71.6 94% 29.82 0.0
06 06:15 S 3 6.00 Fog/Mist BKN028 OVC055 73.4 71.6 94% 29.81 0.0
06 05:55 Vrbl 3 6.00 Fog/Mist FEW015 OVC027 73.4 71.6 94% 29.8 0.0
06 05:35 S 5 6.00 Fog/Mist BKN016 OVC026 73.4 71.6 94% 29.79 0.0
06 05:15 S 6 6.00 Fog/Mist FEW015 OVC026 73.4 71.6 94% 29.79 0.0
06 04:55 S 7 6.00 Fog/Mist FEW016 OVC024 73.4 71.6 94% 29.79 0.0
06 04:35 S 7 6.00 Fog/Mist SCT017 OVC023 73.4 71.6 94% 29.79 0.0
06 04:15 S 7 7.00 Overcast OVC019 73.4 71.6 94% 29.78 0.0
06 03:55 S 8 7.00 Overcast OVC018 73.4 71.6 94% 29.78 0.0
06 03:35 S 6 7.00 Overcast OVC015 73.4 71.6 94% 29.79 0.0
06 03:15 S 7 7.00 Overcast OVC015 73.4 71.6 94% 29.79 0.0
06 02:55 S 8 6.00 Fog/Mist OVC014 73.4 71.6 94% 29.79 0.0
06 02:35 S 7 7.00 Overcast OVC014 73.4 71.6 94% 29.79 0.0
06 02:15 S 7 7.00 Overcast OVC015 73.4 71.6 94% 29.79 0.0
06 01:55 S 5 7.00 Overcast BKN016 OVC037 73.4 71.6 94% 29.79 0.0
06 01:35 Vrbl 6 G 13 8.00 Mostly Cloudy BKN016 BKN037 73.4 71.6 94% 29.78 0.0
06 01:15 S 6 8.00 Mostly Cloudy BKN016 BKN039 75.2 71.6 89% 75 29.79 0.0
06 00:55 S 7 8.00 Mostly Cloudy SCT037 BKN045 75.2 71.6 89% 75 29.78 0.0
06 00:15 S 7 8.00 Mostly Cloudy BKN036 75.2 71.6 89% 75 29.79 0.0
05 23:55 S 8 8.00 A Few Clouds FEW038 75.2 71.6 89% 75 29.79 0.0
05 23:35 S 12 9.00 A Few Clouds FEW040 77 71.6 83% 78 29.78 0.0
05 23:15 S 9 G 17 9.00 Fair CLR 77 71.6 83% 78 29.77 0.0
05 22:55 S 10 G 18 9.00 Fair CLR 77 71.6 83% 78 29.75 0.0
05 22:35 S 8 G 15 9.00 Fair CLR 77 71.6 83% 78 29.75 0.0
05 22:15 S 9 9.00 Fair CLR 77 71.6 83% 78 29.75 0.0
05 21:55 S 7 9.00 Partly Cloudy FEW040 SCT050 77 71.6 83% 78 29.75 0.0
05 21:35 S 9 9.00 Overcast BKN037 SCT044 OVC050 78.8 71.6 79% 82 29.74 0.0
05 21:15 S 7 9.00 Overcast BKN037 BKN045 OVC050 78.8 71.6 79% 82 29.74 0.0
05 20:55 S 6 10.00 Overcast BKN036 BKN045 OVC050 78.8 71.6 79% 82 29.74 0.0
05 20:35 S 9 9.00 Overcast BKN034 BKN045 OVC055 78.8 71.6 79% 82 29.72 0.0
05 20:15 S 7 9.00 Overcast BKN034 BKN044 OVC050 80.6 71.6 74% 85 29.72 0.0
05 19:55 S 9 9.00 Overcast FEW032 SCT039 OVC047 80.6 71.6 74% 85 29.71 0.0
05 19:35 S 8 9.00 Mostly Cloudy FEW034 BKN044 80.6 71.6 74% 85 29.7 0.0
05 19:15 S 7 G 14 9.00 Overcast BKN035 OVC044 82.4 71.6 70% 87 29.69 0.0
05 18:55 S 9 9.00 Overcast BKN033 BKN039 OVC045 82.4 71.6 70% 87 29.7 0.0
05 18:35 S 7 G 14 9.00 Mostly Cloudy SCT032 BKN040 BKN045 82.4 71.6 70% 87 29.7 0.0
05 18:15 S 8 G 14 9.00 Mostly Cloudy SCT038 BKN045 82.4 71.6 70% 87 29.69 0.0
05 17:55 S 9 G 15 9.00 Mostly Cloudy BKN041 BKN047 84.2 71.6 66% 90 29.69 0.0
05 17:35 S 12 G 20 9.00 Partly Cloudy SCT040 84.2 71.6 66% 90 29.69 0.0
05 17:15 S 10 9.00 Partly Cloudy SCT040 84.2 71.6 66% 90 29.69 0.0
05 16:55 S 14 9.00 Mostly Cloudy SCT036 BKN042 84.2 69.8 62% 88 29.7 0.0
05 16:35 S 16 G 22 9.00 Mostly Cloudy BKN035 84.2 69.8 62% 88 29.71 0.0
05 16:15 SW 15 G 22 9.00 A Few Clouds FEW034 86 69.8 59% 91 29.71 0.0
05 15:55 S 16 G 24 9.00 Partly Cloudy SCT033 84.2 69.8 62% 88 29.7 0.0
05 15:35 S 15 G 25 9.00 Partly Cloudy SCT032 86 69.8 59% 91 29.71 0.0
05 15:15 SW 20 9.00 Partly Cloudy SCT030 SCT034 84.2 69.8 62% 88 29.72 0.0
05 14:35 SW 20 G 25 9.00 Partly Cloudy SCT028 SCT032 84.2 69.8 62% 88 29.73 0.0
05 14:15 SW 18 G 24 9.00 Partly Cloudy SCT026 SCT030 82.4 69.8 66% 86 29.74 0.0
05 13:55 S 20 G 26 9.00 Mostly Cloudy SCT023 BKN030 82.4 69.8 66% 86 29.74 0.0
05 13:35 SW 15 9.00 Mostly Cloudy SCT021 BKN027 BKN032 80.6 71.6 74% 85 29.75 0.0
05 13:15 SW 17 G 23 9.00 Overcast SCT020 SCT026 OVC032 80.6 69.8 70% 84 29.76 0.0
05 12:55 SW 12 G 22 9.00 Overcast BKN019 OVC030 78.8 69.8 74% 81 29.77 0.0
05 12:35 SW 18 9.00 Overcast SCT017 SCT022 OVC030 77 69.8 79% 79 29.77 0.0
05 12:15 S 14 9.00 Overcast OVC017 75.2 69.8 83% 75 29.77 0.0
05 11:55 S 16 G 24 9.00 Overcast BKN018 OVC023 77 69.8 79% 79 29.78 0.0
05 11:35 S 14 9.00 Overcast BKN017 OVC022 75.2 69.8 83% 75 29.77 0.0
05 11:15 S 17 G 24 9.00 Overcast OVC016 75.2 69.8 83% 75 29.78 0.0
05 10:55 S 9 G 20 9.00 Overcast OVC015 75.2 69.8 83% 75 29.77 0.0
05 10:35 S 14 G 22 9.00 Overcast BKN015 BKN024 OVC030 75.2 68 78% 76 29.77 0.0
05 10:15 S 14 G 23 8.00 Overcast OVC015 73.4 68 83% 29.77 0.0
05 09:55 S 12 9.00 Overcast OVC016 73.4 68 83% 29.77 0.0
05 09:35 S 13 9.00 Overcast OVC017 71.6 68 88% 29.77 0.0
05 09:15 S 10 G 20 9.00 Overcast OVC017 71.6 66.2 83% 29.77 0.0
05 08:55 SW 10 G 24 9.00 Overcast OVC017 71.6 66.2 83% 29.78 0.0
05 08:35 S 13 G 18 9.00 Overcast OVC018 71.6 66.2 83% 29.77 0.0
05 08:15 SW 14 G 20 9.00 Overcast OVC019 71.6 66.2 83% 29.76 0.0
05 07:55 S 14 G 21 9.00 Overcast OVC017 71.6 66.2 83% 29.76 0.0
05 07:35 S 15 9.00 Overcast OVC017 69.8 66.2 88% 29.76 0.0
05 07:15 S 12 G 20 9.00 Overcast OVC015 69.8 66.2 88% 29.75 0.0
05 06:55 SW 18 G 25 9.00 Overcast OVC015 69.8 66.2 88% 29.75 0.0
05 06:35 S 15 G 23 10.00 Overcast OVC016 69.8 66.2 88% 29.74 0.0
05 06:15 S 17 G 25 10.00 Overcast OVC016 69.8 66.2 88% 29.74 0.0
05 05:55 S 10 G 21 10.00 Overcast OVC015 69.8 66.2 88% 29.75 0.0
05 05:35 S 12 10.00 Overcast OVC015 69.8 66.2 88% 29.74 0.0
05 05:15 S 10 G 20 10.00 Overcast OVC015 69.8 66.2 88% 29.74 0.0
05 04:55 S 15 10.00 Overcast OVC014 69.8 66.2 88% 29.74 0.0
05 04:35 S 12 10.00 Overcast OVC015 68 64.4 88% 29.74 0.0
05 04:15 S 13 G 23 10.00 Overcast OVC016 68 64.4 88% 29.74 0.0
05 03:55 S 14 10.00 Overcast OVC016 68 64.4 88% 29.75 0.0
05 03:35 S 13 10.00 Overcast OVC017 68 64.4 88% 29.76 0.0
05 03:15 S 13 G 18 10.00 Overcast OVC018 68 64.4 88% 29.76 0.0
05 02:55 S 10 G 17 10.00 Overcast OVC019 68 64.4 88% 29.77 0.0
05 02:35 S 12 G 20 10.00 Overcast BKN020 OVC028 68 64.4 88% 29.78 0.0
05 02:15 S 10 G 17 10.00 Overcast BKN022 OVC028 68 64.4 88% 29.78 0.0
05 01:55 S 8 G 15 10.00 Overcast BKN023 BKN028 OVC032 68 64.4 88% 29.79 0.0
05 01:35 S 9 10.00 Overcast BKN025 OVC032 68 64.4 88% 29.79 0.0
05 01:15 S 9 G 15 10.00 Overcast BKN027 OVC033 69.8 64.4 83% 29.8 0.0
05 00:55 S 12 G 20 10.00 Overcast SCT026 OVC032 69.8 64.4 83% 29.8 0.0
05 00:35 S 10 G 16 10.00 Overcast BKN032 OVC037 69.8 62.6 78% 29.79 0.0
05 00:15 S 8 G 15 10.00 Mostly Cloudy BKN034 69.8 62.6 78% 29.8 0.0
04 23:55 S 8 10.00 Partly Cloudy FEW032 SCT039 69.8 62.6 78% 29.79 0.0
04 23:35 S 8 G 16 10.00 Partly Cloudy SCT039 69.8 62.6 78% 29.8 0.0
04 23:15 S 8 G 14 10.00 Mostly Cloudy BKN039 69.8 62.6 78% 29.79 0.0
04 22:55 S 7 G 13 10.00 Overcast OVC038 71.6 62.6 73% 29.8 0.0
04 22:35 S 9 10.00 Overcast OVC038 71.6 62.6 73% 29.8 0.0
04 22:15 S 8 10.00 Overcast OVC042 73.4 60.8 65% 29.8 0.0
04 21:55 S 7 G 14 10.00 Overcast OVC042 73.4 60.8 65% 29.8 0.0
04 21:35 S 7 10.00 Overcast OVC043 73.4 60.8 65% 29.79 0.0
04 21:15 Vrbl 8 10.00 Overcast OVC044 73.4 60.8 65% 29.79 0.0
04 20:55 S 9 10.00 Overcast OVC046 73.4 60.8 65% 29.79 0.0
04 20:35 S 8 10.00 Overcast OVC045 73.4 60.8 65% 29.79 0.0
04 20:15 S 8 10.00 Mostly Cloudy BKN045 75.2 60.8 61% 77 29.78 0.0
04 19:55 S 7 G 13 10.00 A Few Clouds FEW046 75.2 60.8 61% 77 29.78 0.0
04 19:35 S 10 G 18 10.00 A Few Clouds FEW045 77 60.8 57% 79 29.78 0.0
04 19:15 S 10 G 17 10.00 Partly Cloudy SCT045 77 59 54% 79 29.79 0.0
04 18:55 S 10 10.00 Fair CLR 77 59 54% 79 29.79 0.0
04 18:35 S 12 G 23 10.00 Fair CLR 77 57.2 51% 79 29.8 0.0
04 18:15 S 12 G 20 10.00 Fair CLR 78.8 59 51% 80 29.8 0.0
04 17:55 S 13 10.00 A Few Clouds FEW047 78.8 57.2 48% 80 29.81 0.0
04 17:35 S 13 G 20 10.00 Fair CLR 80.6 57.2 45% 81 29.82 0.0
04 17:15 S 16 G 24 10.00 Fair CLR 80.6 57.2 45% 81 29.81 0.0
04 16:55 S 10 G 21 10.00 Fair CLR 80.6 57.2 45% 81 29.82 0.0
04 16:35 S 9 G 18 10.00 Fair CLR 80.6 57.2 45% 81 29.83 0.0
04 16:15 S 15 G 21 10.00 A Few Clouds FEW050 80.6 57.2 45% 81 29.84 0.0
04 15:55 S 9 G 20 10.00 A Few Clouds FEW050 80.6 57.2 45% 81 29.86 0.0
04 15:35 S 16 G 22 10.00 Fair CLR 80.6 57.2 45% 81 29.87 0.0
04 15:15 S 12 G 24 10.00 Fair CLR 80.6 57.2 45% 81 29.87 0.0
04 14:55 S 12 G 22 10.00 Fair CLR 80.6 57.2 45% 81 29.89 0.0
04 14:35 S 15 G 21 10.00 Fair CLR 78.8 55.4 45% 79 29.9 0.0
04 14:15 S 15 10.00 Fair CLR 78.8 55.4 45% 79 29.91 0.0
04 13:55 S 10 G 20 10.00 Fair CLR 78.8 55.4 45% 79 29.91 0.0
04 13:35 SW 13 G 20 10.00 Fair CLR 78.8 53.6 42% 79 29.92 0.0
04 13:15 S 13 G 20 10.00 Fair CLR 77 51.8 42% 78 29.93 0.0
04 12:55 S 9 G 24 10.00 Fair CLR 77 53.6 44% 78 29.94 0.0
04 12:35 S 15 G 24 10.00 Fair CLR 77 51.8 42% 78 29.95 0.0
04 12:15 S 13 G 20 10.00 Fair CLR 75.2 51.8 44% 78 29.96 0.0
04 11:55 S 13 10.00 Fair CLR 75.2 51.8 44% 78 29.97 0.0
04 11:35 S 15 G 24 10.00 Fair CLR 73.4 51.8 47% 29.97 0.0
04 11:15 S 10 G 17 10.00 Fair CLR 73.4 51.8 47% 29.97 0.0
04 10:55 S 12 G 22 10.00 Fair CLR 71.6 51.8 50% 29.98 0.0
04 10:35 S 17 G 25 10.00 Fair CLR 71.6 51.8 50% 29.98 0.0
04 10:15 S 14 G 21 10.00 Fair CLR 69.8 53.6 57% 29.99 0.0
04 09:55 S 13 10.00 Fair CLR 68 53.6 60% 30 0.0
04 09:35 S 14 10.00 Fair CLR 68 51.8 56% 30 0.0
04 09:15 S 13 G 18 10.00 Fair CLR 66.2 51.8 60% 30 0.0
04 08:55 S 10 G 20 10.00 Fair CLR 64.4 51.8 64% 30 0.0
04 08:35 S 9 G 16 10.00 Fair CLR 62.6 51.8 68% 30 0.0
04 08:15 S 8 10.00 Fair CLR 60.8 53.6 77% 30 0.0
04 07:55 S 6 10.00 Fair CLR 59 53.6 82% 29.99 0.0
04 07:35 SE 6 10.00 Fair CLR 57.2 53.6 88% 29.99 0.0
04 07:15 SE 5 10.00 Fair CLR 55.4 51.8 88% 29.99 0.0
04 06:55 Calm 10.00 Fair CLR 55.4 51.8 88% 29.98 0.0
04 06:35 SE 3 10.00 Fair CLR 55.4 51.8 88% 29.98 0.0
04 06:15 SE 5 10.00 Fair CLR 55.4 51.8 88% 29.98 0.0
04 05:55 Calm 10.00 Fair CLR 55.4 51.8 88% 29.97 0.0
04 05:35 SE 3 10.00 Fair CLR 55.4 51.8 88% 29.98 0.0
04 05:15 SE 5 10.00 Fair CLR 55.4 51.8 88% 29.98 0.0
04 04:55 SE 5 10.00 Fair CLR 55.4 51.8 88% 29.99 0.0
04 04:15 SE 5 10.00 Fair CLR 57.2 51.8 82% 30 0.0
Date Time (cdt) Wind (mph) Vis. (mi.) Weather Sky Cond. Air Dwpt Max. Min. Relative Humidity Wind Chill (°F) Heat Index (°F) altimeter (in) sea level (mb) 1 hr 3 hr 6 hr
6 hour
Temperature (ºF) Pressure Precipitation (in)